< < Back
Terminal Aerodrome Forecast


Current Version              Previous Versions:   1  2  3  4  5  6  7  8  9  

Terminal Aerodrome Forecast

500
FTUS44 KBMX 291138
TAFTCL
TAF
KTCL 291138Z 2912/3012 00000KT P6SM SKC
     FM291700 15007KT P6SM SCT250
     FM292000 20007KT P6SM VCTS BKN050CB
     FM300000 00000KT P6SM OVC250=

Latest METAR

989
SAUS70 KWBC 291700 RRA
MTRTCL
METAR KTCL 291653Z 14008KT 10SM CLR 28/18 A2996 RMK AO2 SLP141
T02830178


USA.gov is the U.S. government's official web portal to all federal, state and local government web resources and services.